Boyntonville, New York
Current Conditions -  °F | °C
As of 2:54 AM on Tuesday 27 Jan 2015 (Local Time) from KDDH Reporting Station
Overcast Overcast  
Wind Chill: -15°   Ceiling: 6000
Heat Index: -8°   Visibility: 10mi
Dew Point: -19°   Wind: 12mph
Humidity: 41%   Direction: 10°N
Pressure: 29.77"   Gusts: NA
Location:  42.8782°N, 73.3625°W
Report Text: KDDH 270754Z AUTO 01010KT 10SM OVC060 M08/M19 A2977 RMK AO2 SLP094 T10781189
Loading
Personal Weather Stations






























Interactive Weather Map New forecast layout! Learn more

10-Day Weather Forecast

Advertisements
Track Severe Weather on mobile